Time,TemperatureF,DewpointF,PressureIn,WindDirection,WindDirectionDegrees,WindSpeedMPH,WindSpeedGustMPH,Humidity,HourlyPrecipIn,Conditions,Clouds,dailyrainin,SoftwareType,DateUTC
2013-09-09 00:01:00,72.5,69.4,30.01,South,189,0.0,3.0,90,0.00,,---,0.00,VWS V14.00,2013-09-09 04:01:00,
2013-09-09 00:02:00,72.6,69.5,30.01,South,189,0.0,3.0,90,0.00,,---,0.00,VWS V14.00,2013-09-09 04:02:00,
2013-09-09 00:03:00,72.6,69.5,30.01,South,189,0.0,3.0,90,0.00,,---,0.00,VWS V14.00,2013-09-09 04:03:00,
2013-09-09 00:05:00,72.5,69.4,30.01,South,189,0.0,3.0,90,0.00,,---,0.00,VWS V14.00,2013-09-09 04:05:00,
2013-09-09 00:11:00,72.4,69.3,30.01,South,188,0.0,1.0,90,0.00,,---,0.00,VWS V14.00,2013-09-09 04:11:00,
2013-09-09 00:16:00,72.2,69.1,30.01,South,189,3.0,3.0,90,0.00,,---,0.00,VWS V14.00,2013-09-09 04:16:00,
2013-09-09 00:21:00,72.2,69.4,30.01,South,188,0.0,3.0,91,0.00,,---,0.00,VWS V14.00,2013-09-09 04:21:00,
2013-09-09 00:26:00,72.4,69.6,30.01,South,189,0.0,3.0,91,0.00,,---,0.00,VWS V14.00,2013-09-09 04:26:00,
2013-09-09 00:31:00,72.5,69.7,30.01,South,188,0.0,3.0,91,0.00,,---,0.00,VWS V14.00,2013-09-09 04:31:00,
2013-09-09 00:36:00,72.4,69.6,30.01,South,189,0.0,3.0,91,0.00,,---,0.00,VWS V14.00,2013-09-09 04:36:00,
2013-09-09 00:41:00,72.2,69.4,30.01,South,188,0.0,0.0,91,0.00,,---,0.00,VWS V14.00,2013-09-09 04:41:00,
2013-09-09 00:46:00,72.1,69.3,30.01,South,189,0.0,1.0,91,0.00,,---,0.00,VWS V14.00,2013-09-09 04:46:00,
2013-09-09 00:51:00,72.0,69.2,30.01,South,189,0.0,1.0,91,0.00,,---,0.00,VWS V14.00,2013-09-09 04:51:00,
2013-09-09 00:56:00,71.9,69.1,30.01,South,189,0.0,1.0,91,0.00,,---,0.00,VWS V14.00,2013-09-09 04:56:00,
2013-09-09 01:01:00,71.7,68.9,30.01,South,189,0.0,1.0,91,0.00,,---,0.00,VWS V14.00,2013-09-09 05:01:00,
2013-09-09 01:07:00,71.7,68.9,30.01,South,189,0.0,1.0,91,0.00,,---,0.00,VWS V14.00,2013-09-09 05:07:00,
2013-09-09 01:12:00,71.7,68.9,30.01,South,188,0.0,0.0,91,0.00,,---,0.00,VWS V14.00,2013-09-09 05:12:00,
2013-09-09 01:17:00,71.8,69.0,30.01,South,189,0.0,0.0,91,0.00,,---,0.00,VWS V14.00,2013-09-09 05:17:00,
2013-09-09 01:22:00,71.9,69.1,30.01,South,189,0.0,0.0,91,0.00,,---,0.00,VWS V14.00,2013-09-09 05:22:00,
2013-09-09 01:27:00,71.9,69.1,30.01,South,188,0.0,0.0,91,0.00,,---,0.00,VWS V14.00,2013-09-09 05:27:00,
2013-09-09 01:32:00,71.9,69.1,30.01,South,189,0.0,0.0,91,0.00,,---,0.00,VWS V14.00,2013-09-09 05:32:00,
2013-09-09 01:37:00,71.7,68.9,30.01,South,189,0.0,0.0,91,0.00,,---,0.00,VWS V14.00,2013-09-09 05:37:00,
2013-09-09 01:42:00,71.5,68.7,30.01,South,189,0.0,0.0,91,0.00,,---,0.00,VWS V14.00,2013-09-09 05:42:00,
2013-09-09 01:47:00,71.6,68.8,30.01,South,188,0.0,0.0,91,0.00,,---,0.00,VWS V14.00,2013-09-09 05:47:00,
2013-09-09 01:52:00,71.6,68.8,30.01,South,189,0.0,0.0,91,0.00,,---,0.00,VWS V14.00,2013-09-09 05:52:00,
2013-09-09 01:57:00,71.6,68.8,30.01,South,189,0.0,0.0,91,0.00,,---,0.00,VWS V14.00,2013-09-09 05:57:00,
2013-09-09 02:02:00,71.5,68.7,30.01,South,189,0.0,0.0,91,0.00,,---,0.00,VWS V14.00,2013-09-09 06:02:00,
2013-09-09 02:07:00,71.4,68.6,30.01,South,188,0.0,0.0,91,0.00,,---,0.00,VWS V14.00,2013-09-09 06:07:00,
2013-09-09 02:12:00,71.4,68.6,30.01,South,188,0.0,2.0,91,0.00,,---,0.00,VWS V14.00,2013-09-09 06:12:00,
2013-09-09 02:17:00,71.3,68.5,30.01,South,189,0.0,2.0,91,0.00,,---,0.00,VWS V14.00,2013-09-09 06:17:00,
2013-09-09 02:22:00,71.3,68.5,30.01,South,188,0.0,2.0,91,0.00,,---,0.00,VWS V14.00,2013-09-09 06:22:00,
2013-09-09 02:27:00,71.3,68.5,30.01,South,188,0.0,2.0,91,0.00,,---,0.00,VWS V14.00,2013-09-09 06:27:00,
2013-09-09 02:32:00,71.2,68.4,30.01,South,189,0.0,2.0,91,0.00,,---,0.00,VWS V14.00,2013-09-09 06:32:00,
2013-09-09 02:37:00,71.2,68.4,30.01,South,188,0.0,0.0,91,0.00,,---,0.00,VWS V14.00,2013-09-09 06:37:00,
2013-09-09 02:42:00,71.2,68.4,30.01,South,189,0.0,0.0,91,0.00,,---,0.00,VWS V14.00,2013-09-09 06:42:00,
2013-09-09 02:47:00,71.3,68.5,30.01,South,189,0.0,0.0,91,0.00,,---,0.00,VWS V14.00,2013-09-09 06:47:00,
2013-09-09 02:52:00,71.1,68.3,30.01,South,189,0.0,2.0,91,0.00,,---,0.00,VWS V14.00,2013-09-09 06:52:00,
2013-09-09 02:57:00,71.0,68.2,30.01,South,189,0.0,2.0,91,0.00,,---,0.00,VWS V14.00,2013-09-09 06:57:00,
2013-09-09 03:03:00,71.0,68.2,30.01,South,189,0.0,2.0,91,0.00,,---,0.00,VWS V14.00,2013-09-09 07:03:00,
2013-09-09 03:08:00,70.8,68.1,30.01,South,189,0.0,0.0,91,0.00,,---,0.00,VWS V14.00,2013-09-09 07:08:00,
2013-09-09 03:13:00,70.8,68.1,30.01,South,189,0.0,0.0,91,0.00,,---,0.00,VWS V14.00,2013-09-09 07:13:00,
2013-09-09 03:18:00,70.7,67.9,30.01,South,189,0.0,1.0,91,0.00,,---,0.00,VWS V14.00,2013-09-09 07:18:00,
2013-09-09 03:23:00,70.7,67.9,30.01,South,190,0.0,2.0,91,0.00,,---,0.00,VWS V14.00,2013-09-09 07:23:00,
2013-09-09 03:28:00,70.8,68.1,30.01,South,189,0.0,2.0,91,0.00,,---,0.00,VWS V14.00,2013-09-09 07:28:00,
2013-09-09 03:33:00,70.8,68.1,30.01,South,188,0.0,2.0,91,0.00,,---,0.00,VWS V14.00,2013-09-09 07:33:00,
2013-09-09 03:38:00,70.8,68.4,30.01,South,189,0.0,0.0,92,0.00,,---,0.00,VWS V14.00,2013-09-09 07:38:00,
2013-09-09 03:43:00,70.9,68.2,30.01,South,190,0.0,2.0,91,0.00,,---,0.00,VWS V14.00,2013-09-09 07:43:00,
2013-09-09 03:48:00,71.0,68.2,30.01,South,190,0.0,2.0,91,0.00,,---,0.00,VWS V14.00,2013-09-09 07:48:00,
2013-09-09 03:53:00,71.0,68.2,30.01,South,190,0.0,2.0,91,0.00,,---,0.00,VWS V14.00,2013-09-09 07:53:00,
2013-09-09 03:58:00,71.2,68.4,30.01,South,190,0.0,2.0,91,0.00,,---,0.00,VWS V14.00,2013-09-09 07:58:00,
2013-09-09 04:03:00,71.1,68.3,30.01,South,190,0.0,2.0,91,0.00,,---,0.00,VWS V14.00,2013-09-09 08:03:00,
2013-09-09 04:08:00,71.1,68.3,30.01,South,190,0.0,0.0,91,0.00,,---,0.00,VWS V14.00,2013-09-09 08:08:00,
2013-09-09 04:13:00,71.0,68.2,30.01,South,190,0.0,0.0,91,0.00,,---,0.00,VWS V14.00,2013-09-09 08:13:00,
2013-09-09 04:18:00,70.8,68.4,30.01,South,190,0.0,0.0,92,0.00,,---,0.00,VWS V14.00,2013-09-09 08:18:00,
2013-09-09 04:23:00,70.7,68.3,30.01,South,190,0.0,1.0,92,0.00,,---,0.00,VWS V14.00,2013-09-09 08:23:00,
2013-09-09 04:28:00,70.7,68.3,30.01,South,190,0.0,1.0,92,0.00,,---,0.00,VWS V14.00,2013-09-09 08:28:00,
2013-09-09 04:33:00,70.5,67.8,30.01,South,190,0.0,1.0,91,0.00,,---,0.00,VWS V14.00,2013-09-09 08:33:00,
2013-09-09 04:38:00,70.4,67.7,30.01,South,190,0.0,0.0,91,0.00,,---,0.00,VWS V14.00,2013-09-09 08:38:00,
2013-09-09 04:43:00,70.4,67.7,30.01,South,190,0.0,0.0,91,0.00,,---,0.00,VWS V14.00,2013-09-09 08:43:00,
2013-09-09 04:48:00,70.3,67.6,30.01,South,190,0.0,1.0,91,0.00,,---,0.00,VWS V14.00,2013-09-09 08:48:00,
2013-09-09 04:53:00,70.3,67.6,30.01,South,190,0.0,1.0,91,0.00,,---,0.00,VWS V14.00,2013-09-09 08:53:00,
2013-09-09 04:59:00,70.2,67.4,30.01,South,190,0.0,1.0,91,0.00,,---,0.00,VWS V14.00,2013-09-09 08:59:00,
2013-09-09 05:04:00,70.2,67.4,30.01,South,190,0.0,1.0,91,0.00,,---,0.00,VWS V14.00,2013-09-09 09:04:00,
2013-09-09 05:09:00,70.2,67.8,30.01,South,190,0.0,0.0,92,0.00,,---,0.00,VWS V14.00,2013-09-09 09:09:00,
2013-09-09 05:14:00,70.2,67.4,30.01,South,190,0.0,0.0,91,0.00,,---,0.00,VWS V14.00,2013-09-09 09:14:00,
2013-09-09 05:19:00,70.4,67.7,30.01,South,190,0.0,1.0,91,0.00,,---,0.00,VWS V14.00,2013-09-09 09:19:00,
2013-09-09 05:24:00,71.1,68.7,30.01,East,88,3.0,5.0,92,0.00,,---,0.00,VWS V14.00,2013-09-09 09:24:00,
2013-09-09 05:29:00,71.5,69.1,30.01,East,88,2.0,5.0,92,0.00,,---,0.00,VWS V14.00,2013-09-09 09:29:00,
2013-09-09 05:34:00,71.3,68.9,30.01,East,88,0.0,5.0,92,0.00,,---,0.00,VWS V14.00,2013-09-09 09:34:00,
2013-09-09 05:39:00,70.8,68.1,30.01,East,88,0.0,0.0,91,0.00,,---,0.00,VWS V14.00,2013-09-09 09:39:00,
2013-09-09 05:44:00,70.8,68.1,30.01,East,88,0.0,0.0,91,0.00,,---,0.00,VWS V14.00,2013-09-09 09:44:00,
2013-09-09 05:49:00,70.8,68.1,30.01,East,88,0.0,0.0,91,0.00,,---,0.00,VWS V14.00,2013-09-09 09:49:00,
2013-09-09 05:54:00,70.8,68.1,30.01,East,89,0.0,0.0,91,0.00,,---,0.00,VWS V14.00,2013-09-09 09:54:00,
2013-09-09 05:59:00,70.6,67.8,30.01,East,89,2.0,3.0,91,0.00,,---,0.00,VWS V14.00,2013-09-09 09:59:00,
2013-09-09 06:04:00,70.4,67.7,30.01,East,89,0.0,3.0,91,0.00,,---,0.00,VWS V14.00,2013-09-09 10:04:00,
2013-09-09 06:09:00,70.2,67.4,30.01,East,89,0.0,0.0,91,0.00,,---,0.00,VWS V14.00,2013-09-09 10:09:00,
2013-09-09 06:14:00,70.0,67.3,30.01,East,88,0.0,3.0,91,0.00,,---,0.00,VWS V14.00,2013-09-09 10:14:00,
2013-09-09 06:19:00,69.8,67.1,30.01,East,89,0.0,3.0,91,0.00,,---,0.00,VWS V14.00,2013-09-09 10:19:00,
2013-09-09 06:24:00,69.7,67.0,30.01,East,88,0.0,3.0,91,0.00,,---,0.00,VWS V14.00,2013-09-09 10:24:00,
2013-09-09 06:29:00,69.6,66.9,30.01,East,89,0.0,3.0,91,0.00,,---,0.00,VWS V14.00,2013-09-09 10:29:00,
2013-09-09 06:34:00,69.6,66.9,30.01,East,88,0.0,3.0,91,0.00,,---,0.00,VWS V14.00,2013-09-09 10:34:00,
2013-09-09 06:39:00,69.5,66.8,30.01,East,89,0.0,2.0,91,0.00,,---,0.00,VWS V14.00,2013-09-09 10:39:00,
2013-09-09 06:44:00,69.4,66.7,30.01,East,88,0.0,2.0,91,0.00,,---,0.00,VWS V14.00,2013-09-09 10:44:00,
2013-09-09 06:50:00,69.4,66.7,30.01,East,89,3.0,3.0,91,0.00,,---,0.00,VWS V14.00,2013-09-09 10:50:00,
2013-09-09 06:55:00,69.2,66.5,30.01,East,88,0.0,3.0,91,0.00,,---,0.00,VWS V14.00,2013-09-09 10:55:00,
2013-09-09 07:00:00,69.1,66.7,30.01,East,89,0.0,3.0,92,0.00,,---,0.00,VWS V14.00,2013-09-09 11:00:00,
2013-09-09 07:05:00,69.0,66.3,30.01,East,88,0.0,3.0,91,0.00,,---,0.00,VWS V14.00,2013-09-09 11:05:00,
2013-09-09 07:10:00,69.0,66.3,30.01,East,89,0.0,0.0,91,0.00,,---,0.00,VWS V14.00,2013-09-09 11:10:00,
2013-09-09 07:15:00,69.1,66.7,30.01,East,89,0.0,2.0,92,0.00,,---,0.00,VWS V14.00,2013-09-09 11:15:00,
2013-09-09 07:20:00,69.2,66.5,30.01,East,89,0.0,2.0,91,0.00,,---,0.00,VWS V14.00,2013-09-09 11:20:00,
2013-09-09 07:25:00,69.2,66.5,30.01,East,88,0.0,2.0,91,0.00,,---,0.00,VWS V14.00,2013-09-09 11:25:00,
2013-09-09 07:30:00,69.3,66.6,30.01,East,88,0.0,2.0,91,0.00,,---,0.00,VWS V14.00,2013-09-09 11:30:00,
2013-09-09 07:35:00,69.4,66.7,30.01,East,89,0.0,2.0,91,0.00,,---,0.00,VWS V14.00,2013-09-09 11:35:00,
2013-09-09 07:40:00,69.4,66.7,30.01,East,88,0.0,0.0,91,0.00,,---,0.00,VWS V14.00,2013-09-09 11:40:00,
2013-09-09 07:45:00,69.5,66.8,30.01,East,89,0.0,1.0,91,0.00,,---,0.00,VWS V14.00,2013-09-09 11:45:00,
2013-09-09 07:50:00,69.7,67.0,30.01,East,88,0.0,1.0,91,0.00,,---,0.00,VWS V14.00,2013-09-09 11:50:00,
2013-09-09 07:55:00,70.1,67.4,30.01,East,89,0.0,1.0,91,0.00,,---,0.00,VWS V14.00,2013-09-09 11:55:00,
2013-09-09 08:00:00,70.8,68.1,30.01,SE,124,2.0,5.0,91,0.00,,---,0.00,VWS V14.00,2013-09-09 12:00:00,
2013-09-09 08:05:00,71.5,68.4,30.01,SE,143,0.0,6.0,90,0.00,,---,0.00,VWS V14.00,2013-09-09 12:05:00,
2013-09-09 08:10:00,71.6,67.9,30.01,SE,142,0.0,3.0,88,0.00,,---,0.00,VWS V14.00,2013-09-09 12:10:00,
2013-09-09 08:15:00,71.8,67.7,30.01,SSE,153,3.0,4.0,87,0.00,,---,0.00,VWS V14.00,2013-09-09 12:15:00,
2013-09-09 08:21:00,72.3,67.2,30.01,SSE,164,3.0,7.0,84,0.00,,---,0.00,VWS V14.00,2013-09-09 12:21:00,
2013-09-09 08:26:00,72.9,66.7,30.01,South,169,3.0,7.0,81,0.00,,---,0.00,VWS V14.00,2013-09-09 12:26:00,
2013-09-09 08:31:00,73.2,66.7,30.01,SSE,165,5.0,8.0,80,0.00,,---,0.00,VWS V14.00,2013-09-09 12:31:00,
2013-09-09 08:36:00,73.4,66.9,30.01,SSW,199,8.0,10.0,80,0.00,,---,0.00,VWS V14.00,2013-09-09 12:36:00,
2013-09-09 08:41:00,73.5,67.0,30.01,South,181,4.0,7.0,80,0.00,,---,0.00,VWS V14.00,2013-09-09 12:41:00,
2013-09-09 08:46:00,73.5,66.6,30.01,SSE,168,6.0,7.0,79,0.00,,---,0.00,VWS V14.00,2013-09-09 12:46:00,
2013-09-09 08:51:00,73.6,67.1,30.01,South,170,6.0,8.0,80,0.00,,---,0.00,VWS V14.00,2013-09-09 12:51:00,
2013-09-09 08:56:00,73.5,67.0,30.01,SSE,167,5.0,8.0,80,0.00,,---,0.00,VWS V14.00,2013-09-09 12:56:00,
2013-09-09 09:01:00,73.6,67.1,30.01,SSE,161,5.0,8.0,80,0.00,,---,0.00,VWS V14.00,2013-09-09 13:01:00,
2013-09-09 09:06:00,73.7,66.8,30.01,South,175,2.0,8.0,79,0.00,,---,0.00,VWS V14.00,2013-09-09 13:06:00,
2013-09-09 09:11:00,73.7,66.8,30.01,SSE,167,4.0,6.0,79,0.00,,---,0.00,VWS V14.00,2013-09-09 13:11:00,
2013-09-09 09:16:00,73.7,67.2,26.28,South,171,3.0,6.0,80,0.00,,---,0.00,VWS V14.00,2013-09-09 13:16:00,
2013-09-09 09:21:00,73.8,67.2,26.28,South,174,6.0,7.0,80,0.00,,---,0.00,VWS V14.00,2013-09-09 13:21:00,
2013-09-09 09:26:00,73.9,67.0,26.28,SSE,165,8.0,10.0,79,0.00,,---,0.00,VWS V14.00,2013-09-09 13:26:00,
2013-09-09 09:31:00,74.0,67.1,26.28,South,181,8.0,10.0,79,0.00,,---,0.00,VWS V14.00,2013-09-09 13:31:00,
2013-09-09 09:36:00,74.1,66.8,26.28,South,175,7.0,10.0,78,0.00,,---,0.00,VWS V14.00,2013-09-09 13:36:00,
2013-09-09 09:41:00,74.2,67.3,26.28,SSE,161,7.0,12.0,79,0.00,,---,0.00,VWS V14.00,2013-09-09 13:41:00,
2013-09-09 09:46:00,74.5,67.2,26.28,SSE,163,8.0,12.0,78,0.00,,---,0.00,VWS V14.00,2013-09-09 13:46:00,
2013-09-09 09:51:00,74.8,67.1,31.25,South,178,5.0,12.0,77,0.00,,---,0.00,VWS V14.00,2013-09-09 13:51:00,
2013-09-09 09:57:00,75.1,67.4,31.25,SSW,194,4.0,12.0,77,0.00,,---,0.00,VWS V14.00,2013-09-09 13:57:00,
2013-09-09 10:02:00,75.4,68.1,31.25,SSW,193,3.0,12.0,78,0.00,,---,0.00,VWS V14.00,2013-09-09 14:02:00,
2013-09-09 10:07:00,75.5,67.8,31.25,SSE,163,5.0,12.0,77,0.00,,---,0.00,VWS V14.00,2013-09-09 14:07:00,
2013-09-09 10:12:00,75.6,67.9,31.25,South,178,5.0,9.0,77,0.00,,---,0.00,VWS V14.00,2013-09-09 14:12:00,
2013-09-09 10:17:00,75.7,68.0,31.25,SSE,168,5.0,9.0,77,0.00,,---,0.00,VWS V14.00,2013-09-09 14:17:00,
2013-09-09 10:22:00,75.9,68.2,31.25,South,186,9.0,11.0,77,0.00,,---,0.00,VWS V14.00,2013-09-09 14:22:00,
2013-09-09 10:27:00,76.0,68.3,31.25,South,175,6.0,14.0,77,0.00,,---,0.00,VWS V14.00,2013-09-09 14:27:00,
2013-09-09 10:32:00,76.2,68.1,31.25,South,169,6.0,14.0,76,0.00,,---,0.00,VWS V14.00,2013-09-09 14:32:00,
2013-09-09 10:37:00,76.5,68.4,31.25,South,175,7.0,14.0,76,0.00,,---,0.00,VWS V14.00,2013-09-09 14:37:00,
2013-09-09 10:42:00,76.7,68.6,31.25,South,183,6.0,10.0,76,0.00,,---,0.00,VWS V14.00,2013-09-09 14:42:00,
2013-09-09 10:47:00,77.1,69.0,31.25,South,186,5.0,10.0,76,0.00,,---,0.00,VWS V14.00,2013-09-09 14:47:00,
2013-09-09 10:52:00,77.4,69.2,31.25,SSE,164,11.0,11.0,76,0.00,,---,0.00,VWS V14.00,2013-09-09 14:52:00,
2013-09-09 10:57:00,77.6,69.4,31.25,South,187,8.0,12.0,76,0.00,,---,0.00,VWS V14.00,2013-09-09 14:57:00,
2013-09-09 11:02:00,77.8,69.6,31.25,South,170,7.0,12.0,76,0.00,,---,0.00,VWS V14.00,2013-09-09 15:02:00,
2013-09-09 11:07:00,78.1,69.5,31.25,South,188,4.0,12.0,75,0.00,,---,0.00,VWS V14.00,2013-09-09 15:07:00,
2013-09-09 11:12:00,78.3,69.7,31.25,South,175,4.0,14.0,75,0.00,,---,0.00,VWS V14.00,2013-09-09 15:12:00,
2013-09-09 11:17:00,78.7,70.1,31.25,SSE,155,11.0,14.0,75,0.00,,---,0.00,VWS V14.00,2013-09-09 15:17:00,
2013-09-09 11:22:00,78.8,69.8,31.25,South,190,7.0,14.0,74,0.00,,---,0.00,VWS V14.00,2013-09-09 15:22:00,
2013-09-09 11:27:00,79.2,70.2,31.25,SSE,155,7.0,14.0,74,0.00,,---,0.00,VWS V14.00,2013-09-09 15:27:00,
2013-09-09 11:32:00,79.6,70.6,31.25,SSE,160,10.0,14.0,74,0.00,,---,0.00,VWS V14.00,2013-09-09 15:32:00,
2013-09-09 11:38:00,79.8,70.8,31.25,SSE,168,11.0,11.0,74,0.00,,---,0.00,VWS V14.00,2013-09-09 15:38:00,
2013-09-09 11:43:00,80.1,70.7,31.25,SSE,159,10.0,12.0,73,0.00,,---,0.00,VWS V14.00,2013-09-09 15:43:00,
2013-09-09 11:48:00,80.3,70.5,31.25,SSE,159,7.0,12.0,72,0.00,,---,0.00,VWS V14.00,2013-09-09 15:48:00,
2013-09-09 11:53:00,80.5,71.1,31.25,South,174,11.0,12.0,73,0.00,,---,0.00,VWS V14.00,2013-09-09 15:53:00,
2013-09-09 11:58:00,80.9,71.0,31.25,SSE,163,10.0,12.0,72,0.00,,---,0.00,VWS V14.00,2013-09-09 15:58:00,
2013-09-09 12:03:00,81.3,71.0,31.25,South,186,10.0,13.0,71,0.00,,---,0.00,VWS V14.00,2013-09-09 16:03:00,
2013-09-09 12:08:00,81.7,71.4,31.10,SSE,156,13.0,13.0,71,0.00,,---,0.00,VWS V14.00,2013-09-09 16:08:00,
2013-09-09 12:13:00,82.1,72.2,31.10,SSE,157,9.0,13.0,72,0.00,,---,0.00,VWS V14.00,2013-09-09 16:13:00,
2013-09-09 12:18:00,82.3,71.5,31.10,South,171,10.0,13.0,70,0.00,,---,0.00,VWS V14.00,2013-09-09 16:18:00,
2013-09-09 12:23:00,82.5,72.2,31.10,SSE,161,9.0,13.0,71,0.00,,---,0.00,VWS V14.00,2013-09-09 16:23:00,
2013-09-09 12:28:00,82.8,72.0,31.10,SSE,152,8.0,14.0,70,0.00,,---,0.00,VWS V14.00,2013-09-09 16:28:00,
2013-09-09 12:33:00,83.2,71.6,31.10,SSE,156,6.0,14.0,68,0.00,,---,0.00,VWS V14.00,2013-09-09 16:33:00,
2013-09-09 12:38:00,83.6,72.4,31.10,SSE,155,10.0,13.0,69,0.00,,---,0.00,VWS V14.00,2013-09-09 16:38:00,
2013-09-09 12:43:00,83.8,72.6,31.10,SSE,164,10.0,13.0,69,0.00,,---,0.00,VWS V14.00,2013-09-09 16:43:00,
2013-09-09 12:48:00,84.2,72.5,31.10,SE,146,9.0,13.0,68,0.00,,---,0.00,VWS V14.00,2013-09-09 16:48:00,
2013-09-09 12:53:00,84.3,72.6,31.10,SSE,148,12.0,13.0,68,0.00,,---,0.00,VWS V14.00,2013-09-09 16:53:00,
2013-09-09 12:58:00,84.6,72.4,31.10,SSE,152,10.0,14.0,67,0.00,,---,0.00,VWS V14.00,2013-09-09 16:58:00,
2013-09-09 13:03:00,84.8,72.2,31.10,SSE,163,11.0,14.0,66,0.00,,---,0.00,VWS V14.00,2013-09-09 17:03:00,
2013-09-09 13:08:00,85.0,72.4,31.10,SSE,159,10.0,12.0,66,0.00,,---,0.00,VWS V14.00,2013-09-09 17:08:00,
2013-09-09 13:13:00,85.1,72.5,31.10,SSE,156,12.0,13.0,66,0.00,,---,0.00,VWS V14.00,2013-09-09 17:13:00,
2013-09-09 13:18:00,85.4,72.8,31.10,SSE,165,7.0,14.0,66,0.00,,---,0.00,VWS V14.00,2013-09-09 17:18:00,
2013-09-09 13:24:00,85.5,72.8,31.10,SSE,153,12.0,14.0,66,0.00,,---,0.00,VWS V14.00,2013-09-09 17:24:00,
2013-09-09 13:29:00,85.6,72.9,31.10,SSE,165,7.0,14.0,66,0.00,,---,0.00,VWS V14.00,2013-09-09 17:29:00,
2013-09-09 13:34:00,86.0,73.8,31.10,SSE,163,10.0,14.0,67,0.00,,---,0.00,VWS V14.00,2013-09-09 17:34:00,
2013-09-09 13:39:00,86.1,73.4,31.10,SSE,168,12.0,13.0,66,0.00,,---,0.00,VWS V14.00,2013-09-09 17:39:00,
2013-09-09 13:44:00,86.6,72.5,31.10,SSE,168,13.0,14.0,63,0.00,,---,0.00,VWS V14.00,2013-09-09 17:44:00,
2013-09-09 13:49:00,86.8,72.7,31.10,SSW,209,12.0,17.0,63,0.00,,---,0.00,VWS V14.00,2013-09-09 17:49:00,
2013-09-09 13:54:00,87.1,73.0,31.10,SSE,165,10.0,17.0,63,0.00,,---,0.00,VWS V14.00,2013-09-09 17:54:00,
2013-09-09 13:59:00,87.2,73.1,31.10,South,182,6.0,17.0,63,0.00,,---,0.00,VWS V14.00,2013-09-09 17:59:00,
2013-09-09 14:04:00,87.3,72.2,31.10,South,175,11.0,17.0,61,0.00,,---,0.00,VWS V14.00,2013-09-09 18:04:00,
2013-09-09 14:09:00,87.4,72.3,31.10,South,171,12.0,13.0,61,0.00,,---,0.00,VWS V14.00,2013-09-09 18:09:00,
2013-09-09 14:14:00,87.7,72.6,31.10,South,179,11.0,16.0,61,0.00,,---,0.00,VWS V14.00,2013-09-09 18:14:00,
2013-09-09 14:19:00,87.8,72.2,31.10,SSE,167,10.0,16.0,60,0.00,,---,0.00,VWS V14.00,2013-09-09 18:19:00,
2013-09-09 14:24:00,88.0,72.4,31.10,South,180,4.0,16.0,60,0.00,,---,0.00,VWS V14.00,2013-09-09 18:24:00,
2013-09-09 14:29:00,88.1,72.5,31.10,South,176,7.0,16.0,60,0.00,,---,0.00,VWS V14.00,2013-09-09 18:29:00,
2013-09-09 14:34:00,88.0,72.9,31.10,SSE,154,7.0,16.0,61,0.00,,---,0.00,VWS V14.00,2013-09-09 18:34:00,
2013-09-09 14:39:00,88.1,72.5,31.10,SSE,157,9.0,13.0,60,0.00,,---,0.00,VWS V14.00,2013-09-09 18:39:00,
2013-09-09 14:44:00,88.1,72.5,31.10,South,174,6.0,14.0,60,0.00,,---,0.00,VWS V14.00,2013-09-09 18:44:00,
2013-09-09 14:49:00,88.2,72.6,31.10,SSE,160,7.0,14.0,60,0.00,,---,0.00,VWS V14.00,2013-09-09 18:49:00,
2013-09-09 14:54:00,88.2,72.6,31.10,South,175,9.0,14.0,60,0.00,,---,0.00,VWS V14.00,2013-09-09 18:54:00,
2013-09-09 14:59:00,88.4,73.2,31.10,SSE,167,10.0,14.0,61,0.00,,---,0.00,VWS V14.00,2013-09-09 18:59:00,
2013-09-09 15:04:00,88.3,73.2,31.10,South,173,13.0,15.0,61,0.00,,---,0.00,VWS V14.00,2013-09-09 19:04:00,
2013-09-09 15:09:00,88.5,72.3,31.10,South,172,13.0,13.0,59,0.00,,---,0.00,VWS V14.00,2013-09-09 19:09:00,
2013-09-09 15:15:00,88.6,73.4,31.10,South,169,7.0,13.0,61,0.00,,---,0.00,VWS V14.00,2013-09-09 19:15:00,
2013-09-09 15:20:00,88.5,73.3,31.10,SSE,165,7.0,13.0,61,0.00,,---,0.00,VWS V14.00,2013-09-09 19:20:00,
2013-09-09 15:25:00,88.2,73.1,31.10,South,186,9.0,17.0,61,0.00,,---,0.00,VWS V14.00,2013-09-09 19:25:00,
2013-09-09 15:30:00,88.6,72.4,31.10,South,184,8.0,17.0,59,0.00,,---,0.00,VWS V14.00,2013-09-09 19:30:00,
2013-09-09 15:35:00,88.7,72.5,31.10,South,171,12.0,18.0,59,0.00,,---,0.00,VWS V14.00,2013-09-09 19:35:00,
2013-09-09 15:40:00,88.8,73.1,31.10,SSW,202,7.0,15.0,60,0.00,,---,0.00,VWS V14.00,2013-09-09 19:40:00,
2013-09-09 15:45:00,88.8,72.6,31.10,SSE,157,8.0,15.0,59,0.00,,---,0.00,VWS V14.00,2013-09-09 19:45:00,
2013-09-09 15:50:00,88.9,72.7,31.10,SSE,165,6.0,15.0,59,0.00,,---,0.00,VWS V14.00,2013-09-09 19:50:00,
2013-09-09 15:55:00,89.0,72.8,31.10,SSE,167,6.0,15.0,59,0.00,,---,0.00,VWS V14.00,2013-09-09 19:55:00,
2013-09-09 16:00:00,89.1,73.4,31.10,SSE,167,5.0,15.0,60,0.00,,---,0.00,VWS V14.00,2013-09-09 20:00:00,
2013-09-09 16:05:00,89.1,72.9,31.10,South,178,5.0,15.0,59,0.00,,---,0.00,VWS V14.00,2013-09-09 20:05:00,
2013-09-09 16:10:00,89.2,73.0,31.10,South,187,10.0,11.0,59,0.00,,---,0.00,VWS V14.00,2013-09-09 20:10:00,
2013-09-09 16:15:00,89.1,73.9,31.10,SSE,168,5.0,12.0,61,0.00,,---,0.00,VWS V14.00,2013-09-09 20:15:00,
2013-09-09 16:20:00,89.2,73.0,27.37,South,191,5.0,12.0,59,0.00,,---,0.00,VWS V14.00,2013-09-09 20:20:00,
2013-09-09 16:25:00,89.1,72.9,27.37,SSE,157,12.0,13.0,59,0.00,,---,0.00,VWS V14.00,2013-09-09 20:25:00,
2013-09-09 16:30:00,89.1,72.9,27.37,South,169,8.0,13.0,59,0.00,,---,0.00,VWS V14.00,2013-09-09 20:30:00,
2013-09-09 16:35:00,89.0,73.8,27.37,SSE,163,8.0,13.0,61,0.00,,---,0.00,VWS V14.00,2013-09-09 20:35:00,
2013-09-09 16:40:00,89.0,73.3,27.37,South,171,11.0,12.0,60,0.00,,---,0.00,VWS V14.00,2013-09-09 20:40:00,
2013-09-09 16:45:00,89.1,73.9,27.37,South,172,6.0,12.0,61,0.00,,---,0.00,VWS V14.00,2013-09-09 20:45:00,
2013-09-09 16:50:00,89.0,74.3,28.62,South,175,6.0,12.0,62,0.00,,---,0.00,VWS V14.00,2013-09-09 20:50:00,
2013-09-09 16:55:00,89.2,74.0,28.62,South,188,5.0,12.0,61,0.00,,---,0.00,VWS V14.00,2013-09-09 20:55:00,
2013-09-09 17:01:00,89.3,73.6,28.62,South,188,5.0,13.0,60,0.00,,---,0.00,VWS V14.00,2013-09-09 21:01:00,
2013-09-09 17:06:00,89.3,73.6,32.40,South,169,7.0,13.0,60,0.00,,---,0.00,VWS V14.00,2013-09-09 21:06:00,
2013-09-09 17:11:00,89.2,74.0,32.40,South,175,6.0,9.0,61,0.00,,---,0.00,VWS V14.00,2013-09-09 21:11:00,
2013-09-09 17:16:00,89.1,73.9,32.40,South,173,6.0,11.0,61,0.00,,---,0.00,VWS V14.00,2013-09-09 21:16:00,
2013-09-09 17:21:00,89.1,74.4,32.40,South,181,5.0,11.0,62,0.00,,---,0.00,VWS V14.00,2013-09-09 21:21:00,
2013-09-09 17:26:00,89.0,74.3,32.40,South,173,6.0,11.0,62,0.00,,---,0.00,VWS V14.00,2013-09-09 21:26:00,
2013-09-09 17:31:00,88.9,74.2,32.40,SSW,194,5.0,11.0,62,0.00,,---,0.00,VWS V14.00,2013-09-09 21:31:00,
2013-09-09 17:36:00,89.0,74.3,32.40,SSW,196,7.0,11.0,62,0.00,,---,0.00,VWS V14.00,2013-09-09 21:36:00,
2013-09-09 17:41:00,88.9,74.2,32.40,South,186,5.0,12.0,62,0.00,,---,0.00,VWS V14.00,2013-09-09 21:41:00,
2013-09-09 17:46:00,88.7,74.0,32.40,South,186,11.0,12.0,62,0.00,,---,0.00,VWS V14.00,2013-09-09 21:46:00,
2013-09-09 17:51:00,88.5,74.3,32.40,South,186,4.0,12.0,63,0.00,,---,0.00,VWS V14.00,2013-09-09 21:51:00,
2013-09-09 17:56:00,88.3,74.6,32.40,South,183,4.0,12.0,64,0.00,,---,0.00,VWS V14.00,2013-09-09 21:56:00,
2013-09-09 18:01:00,88.4,75.6,32.40,South,184,0.0,12.0,66,0.00,,---,0.00,VWS V14.00,2013-09-09 22:01:00,
2013-09-09 18:06:00,88.4,76.1,32.40,South,184,1.0,12.0,67,0.00,,---,0.00,VWS V14.00,2013-09-09 22:06:00,
2013-09-09 18:11:00,88.1,75.3,32.40,South,186,3.0,6.0,66,0.00,,---,0.00,VWS V14.00,2013-09-09 22:11:00,
2013-09-09 18:16:00,87.9,75.1,32.40,South,183,3.0,6.0,66,0.00,,---,0.00,VWS V14.00,2013-09-09 22:16:00,
2013-09-09 18:21:00,87.7,74.9,32.40,South,181,7.0,9.0,66,0.00,,---,0.00,VWS V14.00,2013-09-09 22:21:00,
2013-09-09 18:26:00,87.3,75.4,32.40,South,179,0.0,9.0,68,0.00,,---,0.00,VWS V14.00,2013-09-09 22:26:00,
2013-09-09 18:31:00,87.1,74.8,32.40,South,179,0.0,9.0,67,0.00,,---,0.00,VWS V14.00,2013-09-09 22:31:00,
2013-09-09 18:36:00,87.0,75.2,32.40,South,180,3.0,9.0,68,0.00,,---,0.00,VWS V14.00,2013-09-09 22:36:00,
2013-09-09 18:41:00,86.8,75.0,31.42,South,179,0.0,5.0,68,0.00,,---,0.00,VWS V14.00,2013-09-09 22:41:00,
2013-09-09 18:46:00,86.6,74.8,31.42,South,180,0.0,5.0,68,0.00,,---,0.00,VWS V14.00,2013-09-09 22:46:00,
2013-09-09 18:52:00,86.4,74.6,31.42,South,179,0.0,5.0,68,0.00,,---,0.00,VWS V14.00,2013-09-09 22:52:00,
2013-09-09 18:57:00,86.3,74.5,31.42,South,180,2.0,5.0,68,0.00,,---,0.00,VWS V14.00,2013-09-09 22:57:00,
2013-09-09 19:02:00,85.9,75.0,31.42,South,179,0.0,5.0,70,0.00,,---,0.00,VWS V14.00,2013-09-09 23:02:00,
2013-09-09 19:07:00,85.7,74.8,31.42,South,180,3.0,5.0,70,0.00,,---,0.00,VWS V14.00,2013-09-09 23:07:00,
2013-09-09 19:12:00,85.6,74.7,31.42,South,179,0.0,4.0,70,0.00,,---,0.00,VWS V14.00,2013-09-09 23:12:00,
2013-09-09 19:17:00,85.4,74.5,31.42,South,180,3.0,4.0,70,0.00,,---,0.00,VWS V14.00,2013-09-09 23:17:00,
2013-09-09 19:22:00,85.4,74.5,31.42,South,180,1.0,5.0,70,0.00,,---,0.00,VWS V14.00,2013-09-09 23:22:00,
2013-09-09 19:27:00,85.4,74.5,31.42,South,182,0.0,5.0,70,0.00,,---,0.00,VWS V14.00,2013-09-09 23:27:00,
2013-09-09 19:32:00,85.2,74.3,31.42,South,182,0.0,5.0,70,0.00,,---,0.00,VWS V14.00,2013-09-09 23:32:00,
2013-09-09 19:37:00,85.0,74.6,31.42,South,182,0.0,5.0,71,0.00,,---,0.00,VWS V14.00,2013-09-09 23:37:00,
2013-09-09 19:42:00,84.8,74.4,31.42,South,182,2.0,5.0,71,0.00,,---,0.00,VWS V14.00,2013-09-09 23:42:00,
2013-09-09 19:47:00,84.7,74.3,31.42,South,182,0.0,5.0,71,0.00,,---,0.00,VWS V14.00,2013-09-09 23:47:00,
2013-09-09 19:52:00,84.5,74.1,31.42,South,184,3.0,5.0,71,0.00,,---,0.00,VWS V14.00,2013-09-09 23:52:00,
2013-09-09 19:57:00,84.3,73.9,31.42,South,183,2.0,5.0,71,0.00,,---,0.00,VWS V14.00,2013-09-09 23:57:00,
2013-09-09 20:02:00,84.3,74.3,31.42,South,187,3.0,5.0,72,0.00,,---,0.00,VWS V14.00,2013-09-10 00:02:00,
2013-09-09 20:07:00,84.3,73.9,31.42,South,187,3.0,5.0,71,0.00,,---,0.00,VWS V14.00,2013-09-10 00:07:00,
2013-09-09 20:12:00,84.2,73.8,31.42,South,187,0.0,5.0,71,0.00,,---,0.00,VWS V14.00,2013-09-10 00:12:00,
2013-09-09 20:17:00,84.1,74.1,31.42,South,187,2.0,5.0,72,0.00,,---,0.00,VWS V14.00,2013-09-10 00:17:00,
2013-09-09 20:22:00,83.8,73.8,31.42,South,187,0.0,5.0,72,0.00,,---,0.00,VWS V14.00,2013-09-10 00:22:00,
2013-09-09 20:27:00,83.6,73.6,31.42,South,187,0.0,5.0,72,0.00,,---,0.00,VWS V14.00,2013-09-10 00:27:00,
2013-09-09 20:32:00,83.4,73.4,31.42,South,187,1.0,5.0,72,0.00,,---,0.00,VWS V14.00,2013-09-10 00:32:00,
2013-09-09 20:38:00,83.4,73.8,31.42,South,187,0.0,0.0,73,0.00,,---,0.00,VWS V14.00,2013-09-10 00:38:00,
2013-09-09 20:43:00,83.2,73.7,31.42,South,187,1.0,3.0,73,0.00,,---,0.00,VWS V14.00,2013-09-10 00:43:00,
2013-09-09 20:48:00,83.0,73.5,31.42,South,187,0.0,4.0,73,0.00,,---,0.00,VWS V14.00,2013-09-10 00:48:00,
2013-09-09 20:53:00,82.8,73.7,31.42,South,187,0.0,4.0,74,0.00,,---,0.00,VWS V14.00,2013-09-10 00:53:00,
2013-09-09 20:58:00,82.5,73.4,31.42,South,187,0.0,4.0,74,0.00,,---,0.00,VWS V14.00,2013-09-10 00:58:00,
2013-09-09 21:04:00,82.5,73.8,31.42,South,187,0.0,4.0,75,0.00,,---,0.00,VWS V14.00,2013-09-10 01:04:00,
2013-09-09 21:09:00,82.2,73.5,31.42,South,187,0.0,1.0,75,0.00,,---,0.00,VWS V14.00,2013-09-10 01:09:00,
2013-09-09 21:14:00,82.1,73.4,31.42,South,187,0.0,1.0,75,0.00,,---,0.00,VWS V14.00,2013-09-10 01:14:00,
2013-09-09 21:19:00,82.0,73.3,31.42,South,187,0.0,1.0,75,0.00,,---,0.00,VWS V14.00,2013-09-10 01:19:00,
2013-09-09 21:24:00,81.9,73.2,31.42,South,187,0.0,3.0,75,0.00,,---,0.00,VWS V14.00,2013-09-10 01:24:00,
2013-09-09 21:30:00,81.8,73.1,31.42,South,187,0.0,3.0,75,0.00,,---,0.00,VWS V14.00,2013-09-10 01:30:00,
2013-09-09 21:35:00,81.7,73.4,31.42,South,187,0.0,3.0,76,0.00,,---,0.00,VWS V14.00,2013-09-10 01:35:00,
2013-09-09 21:40:00,81.6,73.3,31.42,South,187,0.0,0.0,76,0.00,,---,0.00,VWS V14.00,2013-09-10 01:40:00,
2013-09-09 21:45:00,81.5,73.2,31.42,South,187,0.0,0.0,76,0.00,,---,0.00,VWS V14.00,2013-09-10 01:45:00,
2013-09-09 21:50:00,81.5,73.2,31.42,South,187,0.0,0.0,76,0.00,,---,0.00,VWS V14.00,2013-09-10 01:50:00,
2013-09-09 21:55:00,81.4,73.5,31.42,South,187,0.0,2.0,77,0.00,,---,0.00,VWS V14.00,2013-09-10 01:55:00,
2013-09-09 22:00:00,81.4,73.5,31.42,South,187,0.0,2.0,77,0.00,,---,0.00,VWS V14.00,2013-09-10 02:00:00,
2013-09-09 22:05:00,81.3,73.4,31.42,South,187,0.0,2.0,77,0.00,,---,0.00,VWS V14.00,2013-09-10 02:05:00,
2013-09-09 22:10:00,81.2,73.7,31.42,South,187,0.0,1.0,78,0.00,,---,0.00,VWS V14.00,2013-09-10 02:10:00,
2013-09-09 22:15:00,81.2,73.7,31.42,South,187,0.0,1.0,78,0.00,,---,0.00,VWS V14.00,2013-09-10 02:15:00,
2013-09-09 22:20:00,81.1,73.6,31.42,South,187,0.0,1.0,78,0.00,,---,0.00,VWS V14.00,2013-09-10 02:20:00,
2013-09-09 22:25:00,81.1,73.6,31.42,South,187,2.0,3.0,78,0.00,,---,0.00,VWS V14.00,2013-09-10 02:25:00,
2013-09-09 22:30:00,81.1,73.6,31.42,South,187,0.0,3.0,78,0.00,,---,0.00,VWS V14.00,2013-09-10 02:30:00,
2013-09-09 22:35:00,81.1,73.6,31.42,South,187,0.0,3.0,78,0.00,,---,0.00,VWS V14.00,2013-09-10 02:35:00,
2013-09-09 22:40:00,80.9,73.4,31.42,South,187,0.0,1.0,78,0.00,,---,0.00,VWS V14.00,2013-09-10 02:40:00,
2013-09-09 22:45:00,80.9,73.4,31.42,South,187,0.0,3.0,78,0.00,,---,0.00,VWS V14.00,2013-09-10 02:45:00,
2013-09-09 22:50:00,80.9,73.4,31.42,South,187,0.0,3.0,78,0.00,,---,0.00,VWS V14.00,2013-09-10 02:50:00,
2013-09-09 22:55:00,80.9,73.4,31.42,South,187,2.0,3.0,78,0.00,,---,0.00,VWS V14.00,2013-09-10 02:55:00,
2013-09-09 23:01:00,81.0,73.5,31.42,South,187,3.0,5.0,78,0.00,,---,0.00,VWS V14.00,2013-09-10 03:01:00,
2013-09-09 23:06:00,81.0,73.9,31.42,South,187,0.0,5.0,79,0.00,,---,0.00,VWS V14.00,2013-09-10 03:06:00,
2013-09-09 23:11:00,80.9,73.8,31.42,South,187,0.0,1.0,79,0.00,,---,0.00,VWS V14.00,2013-09-10 03:11:00,
2013-09-09 23:16:00,80.7,73.6,31.42,South,187,0.0,3.0,79,0.00,,---,0.00,VWS V14.00,2013-09-10 03:16:00,
2013-09-09 23:21:00,80.5,73.4,31.42,South,187,0.0,3.0,79,0.00,,---,0.00,VWS V14.00,2013-09-10 03:21:00,
2013-09-09 23:26:00,80.5,73.8,31.42,South,187,0.0,3.0,80,0.00,,---,0.00,VWS V14.00,2013-09-10 03:26:00,
2013-09-09 23:31:00,80.4,73.7,31.42,South,187,0.0,4.0,80,0.00,,---,0.00,VWS V14.00,2013-09-10 03:31:00,
2013-09-09 23:36:00,80.2,73.5,31.42,South,187,0.0,4.0,80,0.00,,---,0.00,VWS V14.00,2013-09-10 03:36:00,
2013-09-09 23:41:00,80.1,73.4,31.42,South,187,0.0,4.0,80,0.00,,---,0.00,VWS V14.00,2013-09-10 03:41:00,
2013-09-09 23:46:00,80.0,73.3,31.42,South,187,0.0,5.0,80,0.00,,---,0.00,VWS V14.00,2013-09-10 03:46:00,
2013-09-09 23:51:00,79.8,73.1,31.42,South,187,0.0,5.0,80,0.00,,---,0.00,VWS V14.00,2013-09-10 03:51:00,
2013-09-09 23:56:00,79.8,73.4,31.42,South,187,2.0,5.0,81,0.00,,---,0.00,VWS V14.00,2013-09-10 03:56:00,